Juan de Fuca Strait - central strait: Past 24 Hour Conditions

 

La Perouse Bank - 46206

05:00 AM PST 18 January 2017Buoy position: 48.83N 126.0W
Disclaimer

This table is a summary of hourly weather conditions for the past 24 hours.
Please note that these observations might not always be representative of weather conditions over their associated marine area.

Date / Time
(PST)
Wind(knots) Wave height(m) Wave period(s) Pressure(kPa) Air tempC) Water tempC)
18 January 2017
5:00 ESE 12 gust 16 5.6 12.0 98.8 10 11
4:00 SE 12 gust 16 5.2 11.0 98.9 10 13
3:00 SSE 14 gust 16 4.8 11.0 99.0 10 12
2:00 N/A N/A N/A N/A N/A N/A
1:00 SSE 19 5.3 11.0 99.0 10 12
0:00 S 19 gust 25 5.8 12.0 99.0 11 12
17 January 2017
23:00 S 21 gust 25 5.6 12.0 99.0 11 14
22:00 S 23 gust 27 5.9 11.0 99.0 11 12
21:00 S 21 gust 27 6.0 10.0 98.9 10 11
20:00 S 23 gust 29 5.8 10.0 98.8 10 11
19:00 N/A N/A N/A N/A N/A N/A
18:00 S 25 gust 31 5.6 10.0 98.7 11 13
17:00 SSE 23 N/A N/A 98.7 10 N/A
16:00 SSE 27 gust 33 5.6 14.0 98.8 10 14
15:00 SE 29 gust 37 5.8 14.0 98.9 9 12
14:00 SE 27 gust 35 5.6 15.0 99.2 9 11
13:00 SE 25 gust 31 5.8 14.0 99.5 10 12
12:00 SSE 23 gust 29 5.6 10.0 99.6 10 11
11:00 SSE 23 N/A N/A N/A N/A N/A
10:00 SSE 25 gust 31 6.3 16.0 99.7 10 14
9:00 SSE 25 gust 31 6.5 15.0 99.7 10 11
8:00 SSE 27 gust 33 5.8 17.0 99.6 10 11
7:00 SSE 29 gust 35 6.1 8.0 99.6 10 13
6:00 SSE 29 gust 35 5.8 8.0 99.7 9 11
5:00 SE 29 gust 35 5.7 8.0 99.8 9 13

Zoom-in to make a selection

Map of Pacific - South Coast marine weather areas Tsawwassen Ferry Terminal South Nomad - 46036 Sentry Shoal - 46131 South Brooks - 46132 Halibut Bank - 46146 South Moresby - 46147 South Hecate Strait - 46185 West Sea Otter - 46204 La Perouse Bank - 46206 East Dellwood - 46207 Discovery Island Esquimalt Harbour Kelp Reefs Malahat Race Rocks Lightstation Saturna Island Sheringham Point University of Victoria Victoria Gonzales Victoria Int'l Airport Ballenas Islands Campbell River Airport Comox Airport Entrance Island Fanny Island Nanaimo Airport Port Hardy Airport Sisters Islets Estevan Point Sartine Island Solander Island Tofino Airport Grief Point Powell River Airport Sechelt Cape St.James Bella Bella Airport Bella Coola Airport Cathedral Point Herbert Island Point Atkinson Sand Heads Lightstation Vancouver Harbour Vancouver Int'l Airport West Vancouver Port Alberni Howe Sound - Pam Rocks Squamish Airport
Legend:
buoy Buoy
land station Land Station

Pacific - South Coast Area

Another Region

What we are doing

Date modified: